Time;durP1;ratioP1;P1;durP2;ratioP2;P2;SDS_P1;SDS_P2;PMS_P1;PMS_P2;Temp;Humidity;BMP_temperature;BMP_pressure;BME280_temperature;BME280_humidity;BME280_pressure;Samples;Min_cycle;Max_cycle;Signal;HPM_P1;HPM_P2
2022/04/05 00:00:46;;;;;;;;;14.50;12.75;;;;;10.04;72.93;101058.50;5100492;27;45144;-68
2022/04/05 00:03:11;;;;;;;;;18.75;14.00;;;;;10.06;72.42;101061.91;5100093;27;46202;-68
2022/04/05 00:05:36;;;;;;;;;15.50;11.75;;;;;10.10;72.69;101057.50;5100434;27;45195;-68
2022/04/05 00:08:02;;;;;;;;;14.75;14.00;;;;;10.10;72.92;101060.97;5100375;27;45455;-69
2022/04/05 00:10:28;;;;;;;;;17.00;12.00;;;;;10.14;72.68;101064.34;5099945;27;45436;-69
2022/04/05 00:12:53;;;;;;;;;13.00;12.25;;;;;10.13;72.90;101063.50;5099975;27;46328;-68
2022/04/05 00:15:18;;;;;;;;;15.25;10.75;;;;;10.12;73.38;101054.00;5099049;27;45277;-68
2022/04/05 00:17:44;;;;;;;;;13.00;9.75;;;;;10.11;73.51;101054.03;5100022;27;45377;-68
2022/04/05 00:20:09;;;;;;;;;12.75;11.50;;;;;10.10;73.28;101057.50;5100100;27;45345;-64
2022/04/05 00:22:35;;;;;;;;;17.00;11.50;;;;;10.13;73.09;101060.03;5099737;27;46183;-64
2022/04/05 00:25:01;;;;;;;;;13.75;12.00;;;;;10.12;74.92;101055.72;5099961;27;45387;-65
2022/04/05 00:27:26;;;;;;;;;11.75;10.50;;;;;10.11;74.72;101048.84;5102771;27;45304;-65
2022/04/05 00:29:51;;;;;;;;;14.25;11.50;;;;;10.12;74.05;101063.53;5103787;27;45364;-65
2022/04/05 00:32:17;;;;;;;;;10.75;9.00;;;;;10.12;74.32;101056.59;5103465;27;46589;-65
2022/04/05 00:34:42;;;;;;;;;11.75;10.75;;;;;10.10;74.94;101057.50;5103589;27;45224;-65
2022/04/05 00:37:08;;;;;;;;;13.75;13.75;;;;;10.12;75.05;101055.72;5103072;27;45760;-65
2022/04/05 00:39:34;;;;;;;;;15.25;11.25;;;;;10.11;74.59;101059.22;5103504;27;45423;-65
2022/04/05 00:41:59;;;;;;;;;12.50;11.25;;;;;10.15;74.36;101058.25;5103133;27;45392;-65
2022/04/05 00:44:25;;;;;;;;;12.50;9.00;;;;;10.15;75.24;101061.72;5103354;27;45229;-65
2022/04/05 00:46:52;;;;;;;;;11.25;8.00;;;;;10.16;75.45;101055.63;5103249;27;45212;-65
2022/04/05 00:49:36;;;;;;;;;13.50;13.50;;;;;10.14;75.23;101053.97;5103098;27;45364;-65
2022/04/05 00:52:01;;;;;;;;;12.50;11.00;;;;;10.15;75.47;101053.06;5103001;27;45550;-65
2022/04/05 00:54:28;;;;;;;;;12.75;11.00;;;;;10.16;75.73;101057.38;5103128;27;45233;-65
2022/04/05 00:56:56;;;;;;;;;12.50;12.25;;;;;10.16;76.02;101058.22;5102984;27;45400;-65
2022/04/05 00:59:25;;;;;;;;;14.00;12.00;;;;;10.12;78.00;101053.13;5103083;27;45404;-65
2022/04/05 01:01:54;;;;;;;;;15.25;12.75;;;;;10.12;77.30;101048.78;5102673;27;45539;-65
2022/04/05 01:04:21;;;;;;;;;13.25;9.50;;;;;10.08;76.92;101049.75;5102837;27;45709;-64
2022/04/05 01:06:48;;;;;;;;;14.00;14.00;;;;;10.14;76.18;101047.03;5102797;27;45326;-63
2022/04/05 01:09:14;;;;;;;;;16.00;11.75;;;;;10.17;76.89;101049.56;5102772;27;45246;-64
2022/04/05 01:11:39;;;;;;;;;14.50;11.00;;;;;10.17;77.20;101048.69;5102501;27;45666;-64
2022/04/05 01:14:05;;;;;;;;;15.00;12.00;;;;;10.17;77.53;101044.34;5103019;27;45240;-63
2022/04/05 01:16:31;;;;;;;;;15.25;12.50;;;;;10.18;77.74;101053.00;5102972;27;45247;-63
2022/04/05 01:18:57;;;;;;;;;14.00;11.00;;;;;10.14;78.89;101049.63;5102763;27;45331;-64
2022/04/05 01:21:23;;;;;;;;;13.00;9.25;;;;;10.09;80.05;101040.22;5102608;27;46341;-64
2022/04/05 01:24:11;;;;;;;;;13.50;13.50;;;;;10.09;80.05;101042.81;5102833;27;45409;-63
2022/04/05 01:26:44;;;;;;;;;13.00;12.75;;;;;10.10;78.33;101037.59;5091704;27;45268;-64
2022/04/05 01:29:11;;;;;;;;;12.00;9.75;;;;;10.12;78.87;101035.81;5102124;27;45513;-64
2022/04/05 01:31:53;;;;;;;;;12.00;11.50;;;;;10.14;78.19;101035.78;5102667;27;46504;-64
2022/04/05 01:34:21;;;;;;;;;12.25;12.25;;;;;10.18;78.14;101033.06;5102478;27;45683;-64
2022/04/05 01:36:52;;;;;;;;;17.75;14.00;;;;;10.25;77.63;101032.13;5098257;27;45247;-64
2022/04/05 01:39:20;;;;;;;;;16.50;10.00;;;;;10.29;78.14;101027.69;5102344;27;45369;-64
2022/04/05 01:41:50;;;;;;;;;14.50;12.50;;;;;10.27;78.34;101025.13;5101995;27;45525;-64
2022/04/05 01:44:16;;;;;;;;;13.75;11.75;;;;;10.26;79.17;101023.44;5102542;27;45361;-64
2022/04/05 01:46:41;;;;;;;;;16.75;13.75;;;;;10.27;78.84;101025.13;5102432;27;45542;-64
2022/04/05 01:49:09;;;;;;;;;17.00;13.50;;;;;10.25;79.41;101021.72;5102390;27;45349;-64
2022/04/05 01:51:36;;;;;;;;;14.50;12.75;;;;;10.25;79.46;101020.88;5102092;27;45396;-65
2022/04/05 01:54:05;;;;;;;;;13.25;12.00;;;;;10.21;79.40;101022.69;5102069;27;45413;-65
2022/04/05 01:56:40;;;;;;;;;20.75;10.00;;;;;10.21;79.72;101019.19;5100699;27;45325;-65
2022/04/05 01:59:05;;;;;;;;;13.25;8.75;;;;;10.18;80.64;101014.91;5102235;27;45251;-65
2022/04/05 02:01:31;;;;;;;;;13.25;13.00;;;;;10.18;79.36;101011.44;5101911;27;45343;-65
2022/04/05 02:03:57;;;;;;;;;13.00;9.25;;;;;10.16;80.25;101008.03;5102085;27;45285;-65
2022/04/05 02:06:23;;;;;;;;;15.75;13.00;;;;;10.17;79.69;101008.00;5102042;27;45420;-65
2022/04/05 02:08:48;;;;;;;;;14.00;13.75;;;;;10.21;79.71;101014.00;5101874;27;45453;-65
2022/04/05 02:11:14;;;;;;;;;20.00;12.25;;;;;10.18;80.65;101003.66;5100767;27;46282;-65
2022/04/05 02:13:39;;;;;;;;;12.50;11.00;;;;;10.13;80.90;101006.34;5101280;27;45423;-65
2022/04/05 02:16:05;;;;;;;;;15.75;12.00;;;;;10.10;80.88;101002.97;5092051;27;45449;-65
2022/04/05 02:18:30;;;;;;;;;13.25;11.50;;;;;10.07;81.01;101002.16;5101836;27;45336;-65
2022/04/05 02:20:56;;;;;;;;;16.00;13.75;;;;;10.09;82.45;101014.25;5099609;27;45442;-65
2022/04/05 02:23:22;;;;;;;;;16.25;15.00;;;;;10.05;81.97;101016.91;5101041;27;45356;-64
2022/04/05 02:25:47;;;;;;;;;18.00;15.75;;;;;10.03;82.45;101010.06;5101577;27;45483;-64
2022/04/05 02:28:13;;;;;;;;;13.00;11.50;;;;;10.02;82.08;101022.19;5101209;27;45385;-64
2022/04/05 02:30:39;;;;;;;;;13.75;13.00;;;;;10.03;82.40;101007.47;5101427;27;45302;-65
2022/04/05 02:33:04;;;;;;;;;14.25;13.00;;;;;10.05;82.55;101008.28;5101645;27;45364;-65
2022/04/05 02:35:30;;;;;;;;;15.00;11.75;;;;;10.07;81.78;101004.75;5097581;27;45297;-64
2022/04/05 02:38:01;;;;;;;;;14.00;14.00;;;;;10.06;82.59;101000.44;5101242;27;45253;-65
2022/04/05 02:40:27;;;;;;;;;18.50;15.25;;;;;10.06;82.61;100994.41;5101154;27;45465;-65
2022/04/05 02:42:53;;;;;;;;;11.00;11.00;;;;;10.07;82.16;100996.13;5101341;27;45214;-66
2022/04/05 02:45:18;;;;;;;;;12.25;10.75;;;;;10.06;84.37;101000.44;5101400;27;45219;-67
2022/04/05 02:47:44;;;;;;;;;14.00;11.25;;;;;10.04;84.95;100998.78;5090768;27;45585;-67
2022/04/05 02:50:10;;;;;;;;;16.75;12.25;;;;;10.04;83.21;100994.44;5095913;27;45320;-67
2022/04/05 02:52:35;;;;;;;;;16.75;12.50;;;;;10.05;83.86;100992.69;5100005;27;45164;-67
2022/04/05 02:55:01;;;;;;;;;16.50;14.25;;;;;10.05;83.93;100985.75;5101188;27;45459;-67
2022/04/05 02:57:27;;;;;;;;;12.25;11.75;;;;;10.06;85.21;100989.22;5101074;27;45206;-67
2022/04/05 02:59:53;;;;;;;;;14.50;12.75;;;;;10.02;84.45;100988.44;5100969;27;46293;-68
2022/04/05 03:02:18;;;;;;;;;12.00;11.00;;;;;10.03;85.45;100984.09;5101399;27;45283;-66
2022/04/05 03:04:43;;;;;;;;;14.00;14.00;;;;;10.03;86.17;100990.13;5101113;27;45369;-71
2022/04/05 03:07:09;;;;;;;;;12.00;11.25;;;;;10.01;85.84;100985.84;5101219;27;45473;-70
2022/04/05 03:09:34;;;;;;;;;15.00;11.25;;;;;10.00;86.44;100986.72;5099610;27;45383;-67
2022/04/05 03:11:59;;;;;;;;;15.75;12.75;;;;;9.98;86.21;100981.56;5099920;27;45387;-67
2022/04/05 03:14:25;;;;;;;;;14.75;12.75;;;;;9.99;86.87;100993.66;5099253;27;45520;-66
2022/04/05 03:16:50;;;;;;;;;15.75;13.00;;;;;9.99;85.87;100985.88;5099784;27;45413;-66
2022/04/05 03:19:15;;;;;;;;;14.75;12.25;;;;;9.97;87.83;100979.84;5099623;27;45695;-66
2022/04/05 03:21:41;;;;;;;;;17.50;11.00;;;;;9.97;87.09;100979.84;5099739;27;45302;-68
2022/04/05 03:24:06;;;;;;;;;14.00;13.00;;;;;9.99;87.56;100985.00;5100372;27;45435;-67
2022/04/05 03:26:31;;;;;;;;;16.75;13.25;;;;;9.95;89.14;100975.59;5100687;27;45353;-67
2022/04/05 03:28:57;;;;;;;;;19.00;13.75;;;;;9.95;88.96;100979.03;5100082;27;46160;-67
2022/04/05 03:31:23;;;;;;;;;16.50;10.25;;;;;9.95;87.30;100983.38;5100993;27;45164;-65
2022/04/05 03:33:48;;;;;;;;;17.00;14.25;;;;;9.93;88.59;100980.81;5100740;27;45334;-66
2022/04/05 03:36:14;;;;;;;;;16.00;12.50;;;;;9.93;87.32;100978.22;5096669;27;45258;-66
2022/04/05 03:38:39;;;;;;;;;11.75;9.75;;;;;9.94;87.35;100974.72;5100453;27;46132;-64
2022/04/05 03:41:05;;;;;;;;;17.25;12.75;;;;;10.00;88.04;100973.75;5100520;27;45219;-64
2022/04/05 03:43:30;;;;;;;;;12.25;12.00;;;;;10.01;87.60;100971.13;5100096;27;45423;-64
2022/04/05 03:45:56;;;;;;;;;12.75;10.25;;;;;10.04;86.60;100970.22;5100296;27;45207;-63
2022/04/05 03:48:21;;;;;;;;;14.75;11.50;;;;;10.02;88.06;100962.47;5100191;27;46237;-66
2022/04/05 03:50:46;;;;;;;;;12.25;10.25;;;;;9.99;88.13;100962.50;5100507;27;45221;-64
2022/04/05 03:53:12;;;;;;;;;9.00;8.00;;;;;9.98;88.69;100962.53;5100615;27;45218;-62
2022/04/05 03:55:37;;;;;;;;;17.25;11.50;;;;;9.98;88.89;100959.94;5100319;27;45416;-68
2022/04/05 03:58:03;;;;;;;;;10.75;8.00;;;;;9.94;88.37;100958.31;5100204;27;46383;-68
2022/04/05 04:00:29;;;;;;;;;13.50;8.00;;;;;9.97;89.97;100964.28;5094087;27;45810;-70
2022/04/05 04:02:54;;;;;;;;;13.25;11.50;;;;;9.91;90.28;100967.00;5104037;27;45419;-72
2022/04/05 04:05:20;;;;;;;;;12.25;11.25;;;;;9.88;90.14;100964.50;5104087;27;45330;-67
2022/04/05 04:07:49;;;;;;;;;12.75;11.00;;;;;9.89;89.33;100960.16;5103602;27;46206;-68
2022/04/05 04:10:15;;;;;;;;;12.75;10.25;;;;;9.95;89.13;100966.06;5103772;27;45818;-66
2022/04/05 04:12:41;;;;;;;;;12.75;12.00;;;;;10.02;89.63;100957.28;5103557;27;45164;-67
2022/04/05 04:15:07;;;;;;;;;11.00;10.50;;;;;10.03;90.56;100956.38;5103670;27;45554;-67
2022/04/05 04:17:33;;;;;;;;;9.75;8.25;;;;;9.99;91.38;100961.66;5103184;27;45518;-68
2022/04/05 04:19:59;;;;;;;;;12.00;10.25;;;;;9.99;89.37;100957.31;5103419;27;45285;-67
2022/04/05 04:22:26;;;;;;;;;11.50;9.75;;;;;10.01;89.80;100946.88;5103664;27;45384;-70
2022/04/05 04:24:52;;;;;;;;;11.50;8.00;;;;;10.04;90.55;100954.63;5103471;27;45336;-67
2022/04/05 04:27:18;;;;;;;;;11.00;11.00;;;;;9.97;92.27;100953.91;5103111;27;45505;-67
2022/04/05 04:29:43;;;;;;;;;11.00;8.25;;;;;9.91;91.61;100958.38;5101907;27;45231;-67
2022/04/05 04:32:08;;;;;;;;;13.75;8.50;;;;;9.87;91.87;100947.22;5103665;27;45297;-67
2022/04/05 04:34:34;;;;;;;;;11.50;11.50;;;;;9.89;92.86;100950.63;5103143;27;45265;-67
2022/04/05 04:36:59;;;;;;;;;8.75;8.75;;;;;9.90;91.02;100954.06;5098668;27;46580;-67
2022/04/05 04:39:25;;;;;;;;;12.25;12.25;;;;;9.93;92.54;100949.66;5101721;27;45321;-67
2022/04/05 04:41:50;;;;;;;;;11.50;7.00;;;;;9.93;91.89;100947.06;5101958;27;45254;-67
2022/04/05 04:44:16;;;;;;;;;12.00;11.00;;;;;9.91;91.79;100951.44;5103043;27;45516;-68
2022/04/05 04:46:43;;;;;;;;;11.25;9.25;;;;;9.91;91.91;100940.19;5102835;27;45349;-68
2022/04/05 04:49:09;;;;;;;;;13.75;8.25;;;;;9.96;91.56;100944.41;5088405;27;45864;-70
2022/04/05 04:51:34;;;;;;;;;15.25;13.25;;;;;9.97;92.97;100947.84;5101565;27;45491;-68
2022/04/05 04:53:59;;;;;;;;;12.00;9.75;;;;;9.96;91.70;100940.94;5102825;27;45425;-69
2022/04/05 04:56:25;;;;;;;;;12.25;12.00;;;;;9.97;92.39;100942.66;5102392;27;45422;-69
2022/04/05 04:58:50;;;;;;;;;6.75;3.00;;;;;9.93;93.05;100938.41;5102809;27;45297;-68
2022/04/05 05:01:16;;;;;;;;;15.00;8.00;;;;;9.94;93.50;100940.13;5087868;27;45398;-68
2022/04/05 05:03:41;;;;;;;;;15.50;10.25;;;;;9.92;92.99;100945.34;5101461;27;45732;-73
2022/04/05 05:06:06;;;;;;;;;11.50;9.00;;;;;9.92;93.28;100940.16;5102279;27;45315;-73
2022/04/05 05:08:33;;;;;;;;;13.75;11.50;;;;;9.94;92.75;100940.97;5101172;27;45348;-73
2022/04/05 05:10:58;;;;;;;;;13.50;11.50;;;;;9.94;93.39;100937.53;5100560;27;45428;-67
2022/04/05 05:13:24;;;;;;;;;12.75;9.00;;;;;9.93;94.32;100939.28;5100615;27;45444;-66
2022/04/05 05:15:49;;;;;;;;;13.25;12.00;;;;;9.94;93.45;100937.53;5102027;27;45284;-67
2022/04/05 05:18:16;;;;;;;;;14.25;12.25;;;;;9.96;92.99;100933.16;5101294;27;45448;-68
2022/04/05 05:20:42;;;;;;;;;9.00;9.00;;;;;9.97;94.44;100940.06;5102184;27;45236;-70
2022/04/05 05:23:07;;;;;;;;;13.25;9.50;;;;;9.92;94.73;100934.13;5102606;27;45232;-71
2022/04/05 05:25:32;;;;;;;;;10.75;8.50;;;;;9.90;93.85;100931.56;5101791;27;46328;-70
2022/04/05 05:27:58;;;;;;;;;15.25;13.00;;;;;9.91;93.99;100942.78;5100713;27;45539;-74
2022/04/05 05:30:23;;;;;;;;;15.75;14.00;;;;;9.94;93.19;100943.59;5102595;27;45376;-77
2022/04/05 05:32:49;;;;;;;;;15.25;13.00;;;;;10.01;92.90;100939.97;5101872;27;45423;-77
2022/04/05 05:35:16;;;;;;;;;14.00;13.00;;;;;10.11;92.70;100934.56;5099254;27;45401;-70
2022/04/05 05:37:42;;;;;;;;;12.75;11.50;;;;;10.18;92.12;100938.72;5100693;27;45916;-66
2022/04/05 05:40:09;;;;;;;;;16.75;15.25;;;;;10.26;91.80;100939.47;5101513;27;45272;-69
2022/04/05 05:42:34;;;;;;;;;13.50;10.75;;;;;10.31;91.37;100935.00;5083097;27;46313;-70
2022/04/05 05:45:00;;;;;;;;;12.50;10.75;;;;;10.38;90.93;100933.09;5101872;27;45238;-72
2022/04/05 05:47:25;;;;;;;;;11.00;9.25;;;;;10.34;91.29;100940.97;5100668;27;45461;-67
2022/04/05 05:49:50;;;;;;;;;13.00;11.75;;;;;10.34;91.34;100929.72;5102182;27;45277;-68
2022/04/05 05:52:16;;;;;;;;;16.50;14.00;;;;;10.36;91.14;100943.53;5101734;27;45394;-67
2022/04/05 05:54:41;;;;;;;;;16.00;12.00;;;;;10.38;91.11;100946.94;5100685;27;45248;-69
2022/04/05 05:57:07;;;;;;;;;14.50;13.25;;;;;10.39;90.94;100943.47;5101589;27;45589;-64
2022/04/05 05:59:33;;;;;;;;;13.25;11.75;;;;;10.41;91.12;100949.50;5100988;27;45468;-71
2022/04/05 06:01:59;;;;;;;;;18.25;13.75;;;;;10.41;90.98;100949.50;5101606;27;45275;-70
2022/04/05 06:04:24;;;;;;;;;24.25;15.75;;;;;10.41;90.70;100949.50;5101764;27;45352;-67
2022/04/05 06:06:50;;;;;;;;;17.75;15.25;;;;;10.47;90.28;100946.75;5100461;27;45305;-67
2022/04/05 06:09:15;;;;;;;;;18.00;15.25;;;;;10.50;90.41;100941.47;5101340;27;45235;-69
2022/04/05 06:11:41;;;;;;;;;16.50;14.75;;;;;10.53;90.39;100953.53;5100793;27;45329;-69
2022/04/05 06:14:06;;;;;;;;;17.50;14.75;;;;;10.52;90.33;100949.22;5101298;27;46363;-70
2022/04/05 06:16:31;;;;;;;;;14.50;14.00;;;;;10.52;90.57;100950.09;5101076;27;45356;-68
2022/04/05 06:18:57;;;;;;;;;17.00;15.25;;;;;10.47;90.58;100956.28;5101455;27;45345;-70
2022/04/05 06:21:22;;;;;;;;;17.50;15.00;;;;;10.46;90.13;100964.97;5101279;27;45329;-67
2022/04/05 06:23:47;;;;;;;;;18.25;15.00;;;;;10.52;90.41;100962.22;5101030;27;47448;-66
2022/04/05 06:26:14;;;;;;;;;20.50;15.00;;;;;10.54;90.23;100966.50;5100592;27;45230;-69
2022/04/05 06:28:39;;;;;;;;;16.75;13.00;;;;;10.55;90.49;100970.78;5100766;27;45199;-70
2022/04/05 06:31:05;;;;;;;;;20.25;14.00;;;;;10.58;90.29;100975.06;5100580;27;45160;-71
2022/04/05 06:33:30;;;;;;;;;20.00;15.00;;;;;10.58;91.76;100978.50;5100352;27;45268;-71
2022/04/05 06:35:58;;;;;;;;;22.00;17.75;;;;;10.55;91.67;100986.38;5095663;27;45238;-71
2022/04/05 06:38:24;;;;;;;;;23.00;15.25;;;;;10.58;92.12;100982.84;5100519;27;45407;-70
2022/04/05 06:40:49;;;;;;;;;28.00;14.50;;;;;10.59;94.61;100988.03;5098674;27;46138;-71
2022/04/05 06:43:16;;;;;;;;;29.25;19.50;;;;;10.54;93.73;100987.28;5100514;27;46629;-71
2022/04/05 06:45:43;;;;;;;;;36.50;22.75;;;;;10.51;93.31;100982.16;5094012;27;45307;-71
2022/04/05 06:48:09;;;;;;;;;22.25;18.75;;;;;10.53;94.08;100982.97;5100714;27;45269;-71
2022/04/05 06:50:38;;;;;;;;;17.50;16.75;;;;;10.55;94.10;100985.53;5100162;27;45461;-71
2022/04/05 06:53:04;;;;;;;;;24.00;17.00;;;;;10.57;95.20;100968.16;5100528;27;45407;-71
2022/04/05 06:55:30;;;;;;;;;19.00;13.75;;;;;10.57;94.94;100975.94;5100055;27;45344;-71
2022/04/05 06:57:56;;;;;;;;;28.00;15.50;;;;;10.55;95.39;100977.75;5100462;27;45409;-71
2022/04/05 07:00:23;;;;;;;;;24.50;20.00;;;;;10.55;94.54;100978.59;5085228;27;45870;-71
2022/04/05 07:02:51;;;;;;;;;18.25;17.00;;;;;10.59;95.60;100971.56;5100561;27;46381;-71
2022/04/05 07:05:17;;;;;;;;;14.25;13.00;;;;;10.64;94.56;100981.00;5099173;27;45709;-71
2022/04/05 07:07:43;;;;;;;;;14.25;12.00;;;;;10.71;94.51;100973.03;5099693;27;45315;-71
2022/04/05 07:10:11;;;;;;;;;11.50;11.25;;;;;10.72;94.68;100964.34;5100386;27;45370;-71
2022/04/05 07:12:37;;;;;;;;;15.25;13.00;;;;;10.75;95.65;100966.88;5100166;27;45415;-71
2022/04/05 07:15:03;;;;;;;;;13.50;12.25;;;;;10.81;94.72;100965.00;5100542;27;45287;-71
2022/04/05 07:17:29;;;;;;;;;13.00;11.75;;;;;10.82;95.31;100971.03;5100551;27;45226;-71
2022/04/05 07:19:54;;;;;;;;;12.00;9.25;;;;;10.82;95.81;100969.28;5100859;27;45180;-70
2022/04/05 07:22:19;;;;;;;;;12.50;8.25;;;;;10.82;95.90;100974.50;5098850;27;47892;-71
2022/04/05 07:24:46;;;;;;;;;14.00;12.50;;;;;10.88;96.28;100970.88;5100284;27;45296;-70
2022/04/05 07:27:12;;;;;;;;;13.50;10.25;;;;;10.91;95.77;100971.66;5099950;27;45410;-71
2022/04/05 07:29:37;;;;;;;;;12.00;8.50;;;;;10.93;94.87;100964.66;5100320;27;45199;-71
2022/04/05 07:32:03;;;;;;;;;9.25;9.00;;;;;10.98;95.44;100968.00;5100456;27;45416;-70
2022/04/05 07:34:28;;;;;;;;;10.25;10.00;;;;;10.98;95.38;100965.38;5098878;27;45400;-71
2022/04/05 07:36:54;;;;;;;;;13.00;10.25;;;;;10.94;95.34;100966.38;5096484;27;45599;-70
2022/04/05 07:39:21;;;;;;;;;14.00;11.00;;;;;10.96;95.60;100972.38;5098343;27;45422;-71
2022/04/05 07:41:47;;;;;;;;;12.25;8.75;;;;;10.97;95.92;100970.63;5100005;27;45310;-71
2022/04/05 07:44:13;;;;;;;;;17.75;11.50;;;;;11.03;96.37;100974.84;5100183;27;45846;-71
2022/04/05 07:46:38;;;;;;;;;13.50;9.00;;;;;11.08;95.63;100978.19;5100516;27;45281;-71
2022/04/05 07:49:03;;;;;;;;;14.75;10.75;;;;;11.16;95.24;100976.22;5100129;27;45227;-71
2022/04/05 07:51:29;;;;;;;;;15.75;12.25;;;;;11.20;95.12;100973.50;5100193;27;45464;-71
2022/04/05 07:53:54;;;;;;;;;15.50;10.75;;;;;11.23;95.05;100976.03;5098366;27;46077;-70
2022/04/05 07:56:20;;;;;;;;;9.25;8.00;;;;;11.22;95.29;100976.09;5100038;27;45495;-71
2022/04/05 07:58:47;;;;;;;;;11.25;8.50;;;;;11.19;95.26;100970.94;5098357;27;45822;-71
2022/04/05 08:01:13;;;;;;;;;16.00;12.75;;;;;11.23;95.02;100967.38;5099628;27;45316;-70
2022/04/05 08:03:38;;;;;;;;;13.75;12.25;;;;;11.24;94.78;100964.75;5099898;27;45339;-70
2022/04/05 08:06:05;;;;;;;;;20.75;13.75;;;;;11.24;94.77;100971.69;5099766;27;45432;-71
2022/04/05 08:08:30;;;;;;;;;18.25;18.25;;;;;11.25;95.37;100966.44;5100021;27;45443;-71
2022/04/05 08:10:57;;;;;;;;;21.00;15.00;;;;;11.28;94.89;100966.34;5099286;27;46284;-71
2022/04/05 08:13:22;;;;;;;;;14.00;11.00;;;;;11.31;94.68;100972.38;5099797;27;45891;-70
2022/04/05 08:15:48;;;;;;;;;19.25;13.50;;;;;11.32;94.74;100974.06;5099615;27;45259;-70
2022/04/05 08:18:13;;;;;;;;;15.75;14.00;;;;;11.37;94.57;100977.41;5100179;27;45175;-70
2022/04/05 08:20:42;;;;;;;;;17.00;14.50;;;;;11.39;94.96;100975.59;5099461;27;46476;-71
2022/04/05 08:23:10;;;;;;;;;14.25;8.00;;;;;11.40;94.65;100979.91;5099868;27;45224;-70
2022/04/05 08:25:36;;;;;;;;;16.75;12.50;;;;;11.39;95.32;100983.41;5099354;27;45344;-70
2022/04/05 08:28:02;;;;;;;;;13.75;9.00;;;;;11.36;95.55;100973.94;5099500;27;45358;-71
2022/04/05 08:30:27;;;;;;;;;8.25;7.25;;;;;11.34;95.94;100978.34;5098381;27;46552;-71
2022/04/05 08:32:53;;;;;;;;;10.50;10.00;;;;;11.39;95.54;100979.06;5099254;27;45344;-72
2022/04/05 08:35:21;;;;;;;;;17.50;11.00;;;;;11.45;95.66;100983.28;5096569;27;45213;-72
2022/04/05 08:37:47;;;;;;;;;16.50;12.00;;;;;11.51;96.16;100986.56;5099171;27;45176;-72
2022/04/05 08:40:15;;;;;;;;;12.75;10.25;;;;;11.51;95.63;100983.94;5098437;27;45391;-72
2022/04/05 08:42:47;;;;;;;;;13.50;10.25;;;;;11.55;96.07;100982.09;5084368;27;45432;-72
2022/04/05 08:45:14;;;;;;;;;14.75;13.25;;;;;11.54;96.18;100981.25;5098067;27;45390;-72
2022/04/05 08:47:48;;;;;;;;;14.25;13.00;;;;;11.57;95.88;100985.50;5099416;27;45400;-72
2022/04/05 08:50:19;;;;;;;;;19.50;14.50;;;;;11.64;95.85;100981.03;5101386;27;45479;-71
2022/04/05 08:52:46;;;;;;;;;15.75;14.25;;;;;11.72;95.96;100981.63;5102045;27;45346;-71
2022/04/05 08:55:13;;;;;;;;;12.50;9.00;;;;;11.73;95.50;100980.75;5100736;27;45254;-72
2022/04/05 08:57:38;;;;;;;;;14.00;11.50;;;;;11.75;95.37;100978.94;5101204;27;45481;-71
2022/04/05 09:00:07;;;;;;;;;14.50;12.00;;;;;11.81;94.94;100979.69;5102334;27;45557;-72
2022/04/05 09:02:33;;;;;;;;;13.50;10.25;;;;;11.80;94.73;100972.72;5102826;27;45353;-72
2022/04/05 09:04:58;;;;;;;;;15.75;14.50;;;;;11.81;94.97;100977.06;5102642;27;45199;-72
2022/04/05 09:07:37;;;;;;;;;9.75;7.25;;;;;11.83;94.39;100967.47;5101327;27;45622;-72
2022/04/05 09:10:07;;;;;;;;;16.75;12.00;;;;;11.91;94.34;100974.19;5102293;27;46250;-72
2022/04/05 09:12:50;;;;;;;;;15.00;13.50;;;;;11.96;93.46;100967.09;5102389;27;45397;-71
2022/04/05 09:15:21;;;;;;;;;9.25;8.25;;;;;11.95;92.72;100976.66;5101565;27;45278;-72
2022/04/05 09:17:48;;;;;;;;;15.25;13.00;;;;;11.95;93.38;100974.03;5102615;27;45417;-72
2022/04/05 09:20:17;;;;;;;;;12.25;12.00;;;;;12.06;93.25;100972.00;5102797;27;45436;-71
2022/04/05 09:22:42;;;;;;;;;17.25;12.75;;;;;12.20;92.72;100971.56;5102528;27;45293;-72
2022/04/05 09:25:12;;;;;;;;;19.75;18.75;;;;;12.28;91.96;100974.81;5102745;27;45313;-72
2022/04/05 09:27:55;;;;;;;;;11.75;10.00;;;;;12.34;91.08;100981.56;5102109;27;45505;-71
2022/04/05 09:30:27;;;;;;;;;16.50;13.50;;;;;12.44;90.83;100977.78;5102539;27;45402;-72
2022/04/05 09:32:53;;;;;;;;;14.50;13.75;;;;;12.49;90.06;100986.31;5102190;27;45388;-72
2022/04/05 09:35:21;;;;;;;;;19.50;14.00;;;;;12.48;90.07;100982.00;5099115;27;45239;-71
2022/04/05 09:37:47;;;;;;;;;17.75;13.75;;;;;12.52;90.29;100982.75;5100502;27;45401;-71
2022/04/05 09:40:16;;;;;;;;;17.75;10.50;;;;;12.62;90.45;100989.41;5100573;27;46879;-72
2022/04/05 09:42:57;;;;;;;;;13.75;12.50;;;;;12.70;89.53;100985.63;5088951;27;46647;-72
2022/04/05 09:45:51;;;;;;;;;12.50;11.25;;;;;12.78;89.00;100985.38;5102201;27;45314;-71
2022/04/05 09:48:22;;;;;;;;;16.50;14.50;;;;;12.83;88.81;100978.28;5100446;27;45400;-72
2022/04/05 09:51:01;;;;;;;;;24.75;17.00;;;;;12.95;88.76;100983.06;5088224;27;46425;-72
2022/04/05 09:53:40;;;;;;;;;15.25;13.75;;;;;13.03;88.22;100978.47;5099607;27;45268;-71
2022/04/05 09:56:12;;;;;;;;;16.00;11.00;;;;;13.04;86.96;100981.91;5092284;27;45429;-72
2022/04/05 09:58:48;;;;;;;;;12.75;11.75;;;;;12.91;87.45;100993.66;5101302;27;45556;-72
2022/04/05 10:01:14;;;;;;;;;16.75;12.25;;;;;12.83;87.85;100983.47;5101547;27;46166;-72
2022/04/05 10:03:59;;;;;;;;;18.00;12.25;;;;;12.78;87.98;100982.75;5101814;27;45272;-71
2022/04/05 10:06:24;;;;;;;;;9.75;9.75;;;;;12.74;88.06;100978.56;5101714;27;45297;-71
2022/04/05 10:08:50;;;;;;;;;11.50;11.25;;;;;12.73;88.17;100980.31;5101270;27;45289;-72
2022/04/05 10:11:15;;;;;;;;;12.25;9.50;;;;;12.73;88.19;100975.09;5100961;27;45358;-71
2022/04/05 10:13:41;;;;;;;;;14.50;12.25;;;;;12.71;88.47;100981.25;5101237;27;45453;-71
2022/04/05 10:16:11;;;;;;;;;10.25;9.50;;;;;12.69;88.46;100986.53;5101208;27;45471;-72
2022/04/05 10:18:36;;;;;;;;;10.50;9.50;;;;;12.69;88.47;100983.94;5101804;27;45348;-72
2022/04/05 10:21:04;;;;;;;;;15.50;11.25;;;;;12.68;88.53;100984.81;5100803;27;45363;-72
2022/04/05 10:23:30;;;;;;;;;17.00;12.50;;;;;12.67;88.66;100977.91;5101275;27;45804;-72
2022/04/05 10:25:57;;;;;;;;;18.50;13.50;;;;;12.66;88.50;100988.38;5100726;27;45341;-72
2022/04/05 10:28:26;;;;;;;;;11.00;8.75;;;;;12.70;88.95;100982.16;5100376;27;45555;-72
2022/04/05 10:31:13;;;;;;;;;12.75;12.75;;;;;12.71;88.71;100991.69;5100751;27;45279;-72
2022/04/05 10:34:01;;;;;;;;;17.25;13.25;;;;;12.70;89.23;100982.16;5101132;27;45267;-72
2022/04/05 10:36:26;;;;;;;;;19.00;15.75;;;;;12.73;89.00;100980.31;5088116;27;45322;-72
2022/04/05 10:39:11;;;;;;;;;17.00;11.50;;;;;12.76;88.80;100992.38;5100993;27;45448;-71
2022/04/05 10:41:37;;;;;;;;;11.00;10.50;;;;;12.72;89.13;100985.56;5101012;27;46473;-71
2022/04/05 10:44:27;;;;;;;;;14.00;12.50;;;;;12.71;89.05;100982.13;5099633;27;45298;-71
2022/04/05 10:47:01;;;;;;;;;13.75;11.50;;;;;12.76;88.86;100979.34;5101248;27;45227;-71
2022/04/05 10:49:41;;;;;;;;;14.25;12.50;;;;;12.84;88.74;100977.38;5099391;27;45184;-73
2022/04/05 10:52:19;;;;;;;;;16.25;12.25;;;;;12.88;88.49;100971.13;5100591;27;45438;-72
2022/04/05 10:54:50;;;;;;;;;14.50;14.50;;;;;12.93;88.05;100971.81;5099864;27;45369;-73
2022/04/05 10:57:18;;;;;;;;;19.50;13.75;;;;;12.94;88.18;100970.06;5085892;27;45421;-72
2022/04/05 10:59:49;;;;;;;;;17.25;13.25;;;;;12.98;88.00;100974.28;5100276;27;45505;-72
2022/04/05 11:02:35;;;;;;;;;17.50;15.75;;;;;13.05;87.95;100968.81;5100604;27;46538;-72
2022/04/05 11:05:19;;;;;;;;;15.25;11.75;;;;;13.16;87.31;100967.59;5099112;27;46082;-72
2022/04/05 11:07:53;;;;;;;;;14.00;11.75;;;;;13.19;87.07;100967.50;5100982;27;45324;-71
2022/04/05 11:10:27;;;;;;;;;11.25;10.75;;;;;13.26;87.25;100969.88;5087018;27;45453;-64
2022/04/05 11:13:09;;;;;;;;;21.50;12.00;;;;;13.34;86.96;100970.44;5100200;27;46731;-64